createdAt,value
2023-01-08T00:02:18.445Z,167.77
2023-01-08T00:04:45.535Z,152.70
2023-01-08T00:07:12.638Z,132.60
2023-01-08T00:09:39.813Z,150.63
2023-01-08T00:12:07.083Z,133.83
2023-01-08T00:14:34.269Z,131.67
2023-01-08T00:17:02.811Z,136.53
2023-01-08T00:19:31.179Z,135.17
2023-01-08T00:21:58.287Z,174.00
2023-01-08T00:24:25.443Z,126.47
2023-01-08T00:26:52.527Z,134.77
2023-01-08T00:29:19.680Z,121.20
2023-01-08T00:31:46.801Z,137.03
2023-01-08T00:34:13.924Z,120.80
2023-01-08T00:36:41.038Z,129.27
2023-01-08T00:39:08.206Z,148.10
2023-01-08T00:41:35.297Z,143.50
2023-01-08T00:44:02.409Z,130.50
2023-01-08T00:46:29.563Z,155.00
2023-01-08T00:48:56.683Z,140.40
2023-01-08T00:51:23.841Z,136.87
2023-01-08T00:53:51.002Z,128.57
2023-01-08T00:56:18.146Z,138.83
2023-01-08T00:58:45.266Z,146.23
2023-01-08T01:01:13.716Z,149.03
2023-01-08T01:03:41.114Z,110.80
2023-01-08T01:06:08.395Z,109.83
2023-01-08T01:08:35.575Z,122.47
2023-01-08T01:11:06.974Z,123.30
2023-01-08T01:13:34.094Z,119.87
2023-01-08T01:16:01.749Z,122.20
2023-01-08T01:18:28.914Z,130.47
2023-01-08T01:20:56.173Z,135.63
2023-01-08T01:23:23.324Z,113.63
2023-01-08T01:25:50.502Z,134.00
2023-01-08T01:28:17.776Z,111.30
2023-01-08T01:30:45.003Z,158.17
2023-01-08T01:33:12.130Z,119.20
2023-01-08T01:35:39.234Z,125.83
2023-01-08T01:38:06.379Z,107.00
2023-01-08T01:40:33.484Z,99.90
2023-01-08T01:43:00.584Z,134.00
2023-01-08T01:45:28.045Z,119.47
2023-01-08T01:47:59.675Z,142.07
2023-01-08T01:50:41.036Z,112.50
2023-01-08T01:53:10.249Z,102.43
2023-01-08T01:55:38.486Z,68.30
2023-01-08T01:58:06.421Z,87.67
2023-01-08T02:00:34.065Z,125.67
2023-01-08T02:03:01.202Z,83.00
2023-01-08T02:05:34.210Z,103.27
2023-01-08T02:08:08.518Z,135.13
2023-01-08T02:10:54.692Z,139.93
2023-01-08T02:13:23.726Z,174.10
2023-01-08T02:16:01.999Z,113.07
2023-01-08T02:18:30.448Z,141.30
2023-01-08T02:20:58.503Z,88.60
2023-01-08T02:23:38.269Z,81.30
2023-01-08T02:26:09.967Z,99.17
2023-01-08T02:29:03.385Z,63.60
2023-01-08T02:31:30.766Z,114.80
2023-01-08T02:33:57.888Z,81.43
2023-01-08T02:36:37.180Z,100.13
2023-01-08T02:39:10.207Z,78.27
2023-01-08T02:41:43.931Z,96.53
2023-01-08T02:44:11.064Z,73.13
2023-01-08T02:46:38.155Z,96.87
2023-01-08T02:49:06.363Z,111.53
2023-01-08T02:51:33.444Z,81.53
2023-01-08T02:54:01.787Z,99.57
2023-01-08T02:56:33.278Z,75.77
2023-01-08T02:59:00.486Z,62.13
2023-01-08T03:01:27.764Z,107.83
2023-01-08T03:03:56.766Z,80.57
2023-01-08T03:06:23.958Z,70.93
2023-01-08T03:08:51.474Z,67.33
2023-01-08T03:11:19.300Z,77.97
2023-01-08T03:13:46.991Z,78.70
2023-01-08T03:16:18.405Z,74.43
2023-01-08T03:18:46.942Z,71.77
2023-01-08T03:21:14.132Z,81.13
2023-01-08T03:23:41.400Z,72.57
2023-01-08T03:26:08.613Z,72.47
2023-01-08T03:28:37.538Z,71.97
2023-01-08T03:31:04.679Z,73.03
2023-01-08T03:33:31.855Z,71.43
2023-01-08T03:35:59.190Z,67.53
2023-01-08T03:38:27.314Z,73.33
2023-01-08T03:40:58.167Z,74.33
2023-01-08T03:43:25.357Z,74.20
2023-01-08T03:45:53.487Z,68.00
2023-01-08T03:48:21.529Z,74.90
2023-01-08T03:50:49.254Z,81.93
2023-01-08T03:53:16.367Z,108.13
2023-01-08T03:55:43.573Z,102.73
2023-01-08T03:58:10.737Z,84.00
2023-01-08T04:00:37.925Z,59.87
2023-01-08T04:03:06.047Z,57.43
2023-01-08T04:05:33.281Z,58.37
2023-01-08T04:08:00.412Z,53.77
2023-01-08T04:10:27.536Z,45.93
2023-01-08T04:12:54.619Z,47.43
2023-01-08T04:15:21.749Z,71.17
2023-01-08T04:17:48.862Z,44.77
2023-01-08T04:20:16.025Z,56.40
2023-01-08T04:22:43.186Z,68.97
2023-01-08T04:25:10.364Z,62.83
2023-01-08T04:27:37.492Z,63.27
2023-01-08T04:30:04.802Z,67.93
2023-01-08T04:32:31.931Z,71.40
2023-01-08T04:34:59.071Z,70.10
2023-01-08T04:37:26.177Z,69.80
2023-01-08T04:39:53.317Z,77.27
2023-01-08T04:42:20.414Z,68.90
2023-01-08T04:44:47.502Z,70.27
2023-01-08T04:47:14.648Z,75.23
2023-01-08T04:49:41.785Z,101.00
2023-01-08T04:52:08.901Z,87.87
2023-01-08T04:54:36.006Z,106.07
2023-01-08T04:57:03.103Z,96.33
2023-01-08T04:59:30.247Z,81.37
2023-01-08T05:01:58.317Z,75.53
2023-01-08T05:04:25.460Z,67.73
2023-01-08T05:06:52.596Z,67.53
2023-01-08T05:09:19.739Z,69.80
2023-01-08T05:11:46.871Z,72.80
2023-01-08T05:14:13.988Z,73.37
2023-01-08T05:16:41.271Z,69.67
2023-01-08T05:19:11.249Z,76.43
2023-01-08T05:21:38.396Z,71.80
2023-01-08T05:24:05.585Z,75.17
2023-01-08T05:26:32.837Z,73.27
2023-01-08T05:29:00.016Z,80.73
2023-01-08T05:31:27.250Z,75.00
2023-01-08T05:33:54.393Z,71.80
2023-01-08T05:36:21.499Z,68.47
2023-01-08T05:38:48.684Z,76.00
2023-01-08T05:41:15.800Z,64.97
2023-01-08T05:43:42.923Z,54.97
2023-01-08T05:46:10.105Z,73.60
2023-01-08T05:48:37.592Z,81.40
2023-01-08T05:51:04.870Z,94.03
2023-01-08T05:53:32.970Z,100.57
2023-01-08T05:56:03.424Z,83.37
2023-01-08T05:58:30.751Z,72.57
2023-01-08T06:01:07.978Z,66.50
2023-01-08T06:03:35.191Z,69.30
2023-01-08T06:06:02.507Z,80.43
2023-01-08T06:08:29.978Z,88.20
2023-01-08T06:11:03.387Z,73.23
2023-01-08T06:13:30.564Z,76.77
2023-01-08T06:15:59.484Z,93.33
2023-01-08T06:18:27.067Z,82.30
2023-01-08T06:20:54.187Z,79.03
2023-01-08T06:23:21.299Z,79.07
2023-01-08T06:25:55.044Z,77.33
2023-01-08T06:28:22.293Z,84.90
2023-01-08T06:30:49.506Z,147.17
2023-01-08T06:33:16.691Z,181.63
2023-01-08T06:35:43.854Z,108.80
2023-01-08T06:38:10.984Z,106.40
2023-01-08T06:40:38.098Z,104.80
2023-01-08T06:43:05.494Z,102.60
2023-01-08T06:45:32.946Z,109.30
2023-01-08T06:48:03.660Z,114.53
2023-01-08T06:50:30.885Z,100.00
2023-01-08T06:52:58.245Z,109.97
2023-01-08T06:55:25.735Z,117.20
2023-01-08T06:57:56.135Z,111.97
2023-01-08T07:00:23.808Z,107.80
2023-01-08T07:02:51.598Z,106.73
2023-01-08T07:05:18.860Z,100.77
2023-01-08T07:07:45.991Z,110.93
2023-01-08T07:10:13.207Z,114.20
2023-01-08T07:12:40.303Z,125.03
2023-01-08T07:15:07.930Z,124.20
2023-01-08T07:17:35.196Z,107.20
2023-01-08T07:20:02.351Z,107.90
2023-01-08T07:22:29.450Z,104.77
2023-01-08T07:24:56.583Z,104.13
2023-01-08T07:27:23.682Z,74.57
2023-01-08T07:29:50.811Z,79.27
2023-01-08T07:32:17.931Z,80.00
2023-01-08T07:34:45.048Z,73.63
2023-01-08T07:37:12.160Z,76.17
2023-01-08T07:39:39.600Z,86.33
2023-01-08T07:42:06.730Z,97.43
2023-01-08T07:44:33.888Z,181.07
2023-01-08T07:47:01.046Z,145.77
2023-01-08T07:49:28.179Z,146.93
2023-01-08T07:51:55.276Z,168.90
2023-01-08T07:54:22.424Z,165.10
2023-01-08T07:56:49.538Z,188.33
2023-01-08T07:59:16.643Z,161.37
2023-01-08T08:01:43.898Z,139.13
2023-01-08T08:04:11.263Z,137.43
2023-01-08T08:06:38.360Z,134.67
2023-01-08T08:09:05.484Z,129.30
2023-01-08T08:11:32.639Z,127.07
2023-01-08T08:13:59.722Z,134.97
2023-01-08T08:16:26.959Z,130.33
2023-01-08T08:18:54.108Z,119.83
2023-01-08T08:21:21.215Z,116.87
2023-01-08T08:23:48.370Z,137.63
2023-01-08T08:26:15.459Z,172.20
2023-01-08T08:28:42.564Z,186.13
2023-01-08T08:31:09.786Z,186.10
2023-01-08T08:33:36.928Z,186.57
2023-01-08T08:36:04.150Z,191.43
2023-01-08T08:38:31.277Z,182.63
2023-01-08T08:40:58.533Z,185.20
2023-01-08T08:43:25.669Z,179.27
2023-01-08T08:45:52.830Z,163.77
2023-01-08T08:48:19.961Z,172.20
2023-01-08T08:50:47.051Z,197.07
2023-01-08T08:53:14.198Z,198.27
2023-01-08T08:55:41.300Z,194.93
2023-01-08T08:58:10.923Z,193.60
2023-01-08T09:00:38.692Z,187.90
2023-01-08T09:03:06.118Z,183.27
2023-01-08T09:05:36.356Z,176.47
2023-01-08T09:08:03.474Z,121.10
2023-01-08T09:10:30.644Z,100.67
2023-01-08T09:12:57.777Z,121.43
2023-01-08T09:15:24.908Z,74.00
2023-01-08T09:17:57.995Z,150.30
2023-01-08T09:20:25.469Z,166.00
2023-01-08T09:22:52.596Z,145.90
2023-01-08T09:25:19.693Z,128.17
2023-01-08T09:27:46.844Z,111.47
2023-01-08T09:30:13.971Z,125.70
2023-01-08T09:32:41.151Z,137.43
2023-01-08T09:35:08.502Z,123.57
2023-01-08T09:37:35.662Z,113.77
2023-01-08T09:40:03.470Z,126.57
2023-01-08T09:42:30.723Z,123.73
2023-01-08T09:44:57.924Z,116.70
2023-01-08T09:47:51.560Z,94.27
2023-01-08T09:50:18.667Z,105.73
2023-01-08T09:52:46.647Z,107.50
2023-01-08T09:55:14.340Z,87.73
2023-01-08T09:57:41.497Z,95.37
2023-01-08T10:00:14.008Z,111.20
2023-01-08T10:02:41.277Z,103.33
2023-01-08T10:05:12.908Z,106.37
2023-01-08T10:07:40.069Z,83.73
2023-01-08T10:10:07.537Z,70.40
2023-01-08T10:12:34.713Z,68.70
2023-01-08T10:15:05.773Z,69.43
2023-01-08T10:18:02.534Z,72.30
2023-01-08T10:20:29.672Z,63.97
2023-01-08T10:22:57.040Z,59.30
2023-01-08T10:25:28.341Z,64.20
2023-01-08T10:27:59.141Z,68.03
2023-01-08T10:30:32.396Z,67.72
2023-01-08T10:33:03.329Z,71.07
2023-01-08T10:35:34.074Z,69.72
2023-01-08T10:38:01.198Z,65.55
2023-01-08T10:40:31.371Z,60.67
2023-01-08T10:42:59.344Z,56.60
2023-01-08T10:45:27.012Z,64.25
2023-01-08T10:47:56.411Z,63.33
2023-01-08T10:50:24.984Z,72.32
2023-01-08T10:52:53.581Z,74.68
2023-01-08T10:55:23.592Z,59.35
2023-01-08T10:58:00.408Z,69.53
2023-01-08T11:00:28.653Z,88.53
2023-01-08T11:02:56.803Z,101.28
2023-01-08T11:05:33.691Z,94.68
2023-01-08T11:08:01.088Z,81.63
2023-01-08T11:10:28.301Z,71.45
2023-01-08T11:13:04.175Z,63.63
2023-01-08T11:15:32.301Z,62.92
2023-01-08T11:18:06.043Z,50.35
2023-01-08T11:20:33.193Z,78.90
2023-01-08T11:23:15.518Z,63.00
2023-01-08T11:25:43.640Z,70.85
2023-01-08T11:28:12.297Z,63.88
2023-01-08T11:30:39.423Z,46.08
2023-01-08T11:33:07.217Z,38.10
2023-01-08T11:35:38.617Z,37.97
2023-01-08T11:38:06.596Z,51.83
2023-01-08T11:40:45.860Z,48.50
2023-01-08T11:43:20.414Z,47.92
2023-01-08T11:45:47.576Z,43.63
2023-01-08T11:48:17.773Z,37.90
2023-01-08T11:50:59.850Z,33.95
2023-01-08T11:53:31.516Z,31.92
2023-01-08T11:56:07.996Z,27.13
2023-01-08T11:58:35.155Z,27.15
2023-01-08T12:01:06.527Z,29.83
2023-01-08T12:03:41.828Z,26.65
2023-01-08T12:06:11.931Z,27.85
2023-01-08T12:08:51.062Z,23.60
2023-01-08T12:11:31.686Z,21.70
2023-01-08T12:14:07.790Z,19.27
2023-01-08T12:16:43.992Z,17.17
2023-01-08T12:19:29.930Z,21.80
2023-01-08T12:22:15.441Z,18.17
2023-01-08T12:24:51.635Z,16.95
2023-01-08T12:27:25.936Z,19.90
2023-01-08T12:30:15.827Z,17.65
2023-01-08T12:32:54.605Z,15.85
2023-01-08T12:35:29.379Z,16.55
2023-01-08T12:37:59.555Z,14.43
2023-01-08T12:40:26.644Z,14.52
2023-01-08T12:43:01.023Z,14.60
2023-01-08T12:45:29.908Z,14.23
2023-01-08T12:48:17.310Z,14.63
2023-01-08T12:50:49.777Z,16.90
2023-01-08T12:53:16.872Z,13.73
2023-01-08T12:55:55.795Z,13.63
2023-01-08T12:58:33.767Z,12.45
2023-01-08T13:01:03.474Z,13.38
2023-01-08T13:03:30.641Z,12.57
2023-01-08T13:06:08.313Z,12.38
2023-01-08T13:08:36.123Z,15.82
2023-01-08T13:11:03.243Z,16.67
2023-01-08T13:13:30.990Z,17.05
2023-01-08T13:16:10.341Z,18.92
2023-01-08T13:18:37.621Z,16.83
2023-01-08T13:21:04.879Z,18.27
2023-01-08T13:23:34.341Z,18.75
2023-01-08T13:26:01.967Z,19.88
2023-01-08T13:28:31.585Z,19.20
2023-01-08T13:31:07.929Z,21.30
2023-01-08T13:33:35.153Z,21.13
2023-01-08T13:36:14.614Z,23.65
2023-01-08T13:38:41.808Z,28.08
2023-01-08T13:41:25.237Z,24.98
2023-01-08T13:43:57.506Z,21.38
2023-01-08T13:46:25.192Z,20.40
2023-01-08T13:49:08.070Z,22.13
2023-01-08T13:51:45.207Z,22.67
2023-01-08T13:54:15.325Z,30.58
2023-01-08T13:56:42.774Z,37.20
2023-01-08T13:59:32.932Z,43.78
2023-01-08T14:02:01.416Z,28.83
2023-01-08T14:04:28.663Z,27.08
2023-01-08T14:07:05.637Z,29.98
2023-01-08T14:09:34.616Z,22.65
2023-01-08T14:12:01.847Z,20.42
2023-01-08T14:14:28.973Z,24.88
2023-01-08T14:16:57.131Z,55.22
2023-01-08T14:19:24.877Z,58.03
2023-01-08T14:21:58.789Z,62.22
2023-01-08T14:24:26.092Z,59.63
2023-01-08T14:26:53.756Z,51.88
2023-01-08T14:29:21.779Z,44.40
2023-01-08T14:31:53.131Z,65.75
2023-01-08T14:34:21.034Z,79.55
2023-01-08T14:36:48.187Z,75.45
2023-01-08T14:39:25.280Z,64.75
2023-01-08T14:42:11.521Z,59.85
2023-01-08T14:44:42.241Z,58.90
2023-01-08T14:47:14.724Z,89.07
2023-01-08T14:49:44.604Z,114.10
2023-01-08T14:52:12.732Z,152.45
2023-01-08T14:54:39.882Z,74.95
2023-01-08T14:57:06.987Z,52.67
2023-01-08T14:59:34.804Z,62.70
2023-01-08T15:02:02.498Z,71.68
2023-01-08T15:04:29.839Z,75.73
2023-01-08T15:07:07.931Z,81.70
2023-01-08T15:09:35.483Z,112.23
2023-01-08T15:12:05.990Z,51.90
2023-01-08T15:14:37.151Z,43.60
2023-01-08T15:17:11.413Z,56.95
2023-01-08T15:19:57.212Z,86.72
2023-01-08T15:22:25.294Z,75.43
2023-01-08T15:24:55.363Z,97.67
2023-01-08T15:27:22.535Z,140.13
2023-01-08T15:29:50.342Z,200.73
2023-01-08T15:32:17.442Z,213.77
2023-01-08T15:34:44.950Z,148.45
2023-01-08T15:37:12.261Z,151.23
2023-01-08T15:39:39.356Z,102.87
2023-01-08T15:42:31.075Z,126.17
2023-01-08T15:44:58.171Z,109.10
2023-01-08T15:47:25.278Z,154.83
2023-01-08T15:49:54.502Z,177.10
2023-01-08T15:52:23.160Z,154.47
2023-01-08T15:54:50.369Z,162.77
2023-01-08T15:57:21.134Z,782.43
2023-01-08T15:59:48.229Z,290.03
2023-01-08T16:02:16.438Z,199.13
2023-01-08T16:04:43.638Z,175.90
2023-01-08T16:07:10.742Z,178.40
2023-01-08T16:09:37.838Z,171.30
2023-01-08T16:12:05.581Z,164.77
2023-01-08T16:14:34.211Z,162.97
2023-01-08T16:17:01.494Z,166.27
2023-01-08T16:19:30.875Z,149.27
2023-01-08T16:21:58.428Z,154.83
2023-01-08T16:24:25.583Z,185.50
2023-01-08T16:26:52.694Z,269.57
2023-01-08T16:29:19.927Z,203.60
2023-01-08T16:31:47.460Z,257.57
2023-01-08T16:34:14.890Z,257.20
2023-01-08T16:36:42.055Z,261.47
2023-01-08T16:39:09.193Z,288.83
2023-01-08T16:41:36.861Z,276.33
2023-01-08T16:44:04.067Z,289.23
2023-01-08T16:46:31.187Z,282.03
2023-01-08T16:48:58.321Z,283.63
2023-01-08T16:51:27.552Z,328.33
2023-01-08T16:53:54.725Z,312.40
2023-01-08T16:56:21.881Z,349.00
2023-01-08T16:58:50.657Z,346.07
2023-01-08T17:01:17.974Z,184.77
2023-01-08T17:03:45.402Z,151.17
2023-01-08T17:06:12.998Z,177.50
2023-01-08T17:08:41.324Z,174.53
2023-01-08T17:11:09.300Z,190.03
2023-01-08T17:13:36.443Z,180.77
2023-01-08T17:16:04.322Z,213.63
2023-01-08T17:18:31.472Z,230.33
2023-01-08T17:20:58.594Z,199.17
2023-01-08T17:23:28.700Z,179.83
2023-01-08T17:25:56.164Z,186.17
2023-01-08T17:28:28.410Z,182.27
2023-01-08T17:31:01.833Z,161.20
2023-01-08T17:33:28.926Z,178.17
2023-01-08T17:35:56.019Z,251.03
2023-01-08T17:38:23.161Z,249.77
2023-01-08T17:40:50.261Z,250.13
2023-01-08T17:43:17.366Z,316.93
2023-01-08T17:45:44.572Z,286.00
2023-01-08T17:48:11.779Z,284.30
2023-01-08T17:50:41.645Z,274.60
2023-01-08T17:53:08.843Z,245.33
2023-01-08T17:55:37.139Z,236.53
2023-01-08T17:58:04.245Z,135.50
2023-01-08T18:00:31.392Z,149.03
2023-01-08T18:02:58.562Z,147.60
2023-01-08T18:05:25.767Z,82.10
2023-01-08T18:07:53.089Z,173.30
2023-01-08T18:10:20.282Z,158.27
2023-01-08T18:12:47.421Z,128.17
2023-01-08T18:15:16.634Z,125.27
2023-01-08T18:17:43.912Z,149.73
2023-01-08T18:20:11.311Z,106.67
2023-01-08T18:22:38.472Z,150.13
2023-01-08T18:25:05.765Z,329.08
2023-01-08T18:27:32.869Z,224.50
2023-01-08T18:30:00.136Z,256.65
2023-01-08T18:32:27.282Z,250.57
2023-01-08T18:34:54.485Z,235.80
2023-01-08T18:37:23.292Z,229.37
2023-01-08T18:39:50.571Z,242.07
2023-01-08T18:42:26.755Z,578.37
2023-01-08T18:44:55.960Z,438.88
2023-01-08T18:47:23.729Z,272.17
2023-01-08T18:49:54.915Z,562.92
2023-01-08T18:52:22.372Z,296.53
2023-01-08T18:54:49.530Z,285.73
2023-01-08T18:57:16.709Z,259.43
2023-01-08T18:59:43.807Z,294.27
2023-01-08T19:02:17.368Z,250.47
2023-01-08T19:04:44.509Z,284.35
2023-01-08T19:07:11.603Z,258.27
2023-01-08T19:09:38.755Z,256.63
2023-01-08T19:12:06.007Z,212.17
2023-01-08T19:14:33.157Z,240.80
2023-01-08T19:17:00.289Z,238.97
2023-01-08T19:19:28.041Z,267.17
2023-01-08T19:21:55.201Z,277.37
2023-01-08T19:24:22.319Z,479.37
2023-01-08T19:26:49.412Z,927.00
2023-01-08T19:29:16.532Z,514.03
2023-01-08T19:31:43.721Z,610.13
2023-01-08T19:34:10.914Z,485.02
2023-01-08T19:36:38.021Z,479.20
2023-01-08T19:39:07.446Z,360.33
2023-01-08T19:41:53.375Z,307.90
2023-01-08T19:44:20.490Z,295.60
2023-01-08T19:46:47.658Z,251.30
2023-01-08T19:49:14.777Z,230.10
2023-01-08T19:51:41.929Z,296.77
2023-01-08T19:54:09.070Z,277.50
2023-01-08T19:56:36.203Z,238.47
2023-01-08T19:59:03.334Z,191.23
2023-01-08T20:01:30.672Z,181.03
2023-01-08T20:03:57.944Z,192.90
2023-01-08T20:06:26.134Z,175.50
2023-01-08T20:08:54.260Z,185.57
2023-01-08T20:11:22.271Z,182.90
2023-01-08T20:13:49.778Z,131.90
2023-01-08T20:16:17.292Z,136.37
2023-01-08T20:18:44.474Z,139.07
2023-01-08T20:21:15.522Z,84.03
2023-01-08T20:23:42.739Z,89.07
2023-01-08T20:26:10.746Z,70.47
2023-01-08T20:28:38.659Z,69.40
2023-01-08T20:31:06.923Z,55.17
2023-01-08T20:33:34.329Z,67.63
2023-01-08T20:36:01.641Z,75.43
2023-01-08T20:38:28.755Z,81.33
2023-01-08T20:40:55.913Z,63.80
2023-01-08T20:43:23.051Z,53.25
2023-01-08T20:45:50.183Z,60.40
2023-01-08T20:48:17.324Z,35.10
2023-01-08T20:50:46.972Z,19.05
2023-01-08T20:53:14.672Z,15.45
2023-01-08T20:55:43.696Z,12.73
2023-01-08T20:58:11.021Z,9.77
2023-01-08T21:00:38.145Z,11.48
2023-01-08T21:03:05.242Z,12.82
2023-01-08T21:05:33.932Z,10.80
2023-01-08T21:08:01.052Z,11.25
2023-01-08T21:10:28.161Z,11.80
2023-01-08T21:12:55.304Z,11.63
2023-01-08T21:15:22.595Z,12.88
2023-01-08T21:17:49.949Z,12.52
2023-01-08T21:20:17.284Z,18.90
2023-01-08T21:22:44.451Z,20.17
2023-01-08T21:25:11.617Z,23.45
2023-01-08T21:27:38.765Z,16.50
2023-01-08T21:30:06.167Z,18.17
2023-01-08T21:32:33.293Z,17.88
2023-01-08T21:35:00.440Z,12.23
2023-01-08T21:37:30.191Z,12.60
2023-01-08T21:39:57.280Z,13.07
2023-01-08T21:42:43.161Z,16.58
2023-01-08T21:45:25.616Z,17.85
2023-01-08T21:47:53.043Z,19.40
2023-01-08T21:50:20.318Z,20.27
2023-01-08T21:53:06.207Z,11.40
2023-01-08T21:55:33.743Z,9.02
2023-01-08T21:58:00.871Z,11.00
2023-01-08T22:00:28.448Z,11.70
2023-01-08T22:02:55.656Z,9.50
2023-01-08T22:05:22.772Z,12.23
2023-01-08T22:07:49.914Z,12.52
2023-01-08T22:10:17.078Z,14.60
2023-01-08T22:12:44.218Z,13.02
2023-01-08T22:15:11.505Z,11.43
2023-01-08T22:17:38.675Z,13.88
2023-01-08T22:20:08.043Z,10.95
2023-01-08T22:22:35.177Z,10.93
2023-01-08T22:25:02.313Z,9.50
2023-01-08T22:27:30.295Z,8.38
2023-01-08T22:29:57.414Z,8.40
2023-01-08T22:32:24.521Z,7.70
2023-01-08T22:34:51.899Z,9.07
2023-01-08T22:37:21.642Z,9.13
2023-01-08T22:39:49.253Z,7.43
2023-01-08T22:42:16.852Z,8.23
2023-01-08T22:44:44.035Z,8.82
2023-01-08T22:47:11.193Z,8.77
2023-01-08T22:49:38.450Z,8.63
2023-01-08T22:52:06.263Z,24.52
2023-01-08T22:54:33.400Z,26.52
2023-01-08T22:57:00.520Z,16.75
2023-01-08T22:59:27.667Z,12.57
2023-01-08T23:01:54.758Z,22.58
2023-01-08T23:04:21.882Z,15.98
2023-01-08T23:06:49.071Z,30.95
2023-01-08T23:09:16.200Z,10.90
2023-01-08T23:11:43.384Z,11.70
2023-01-08T23:14:11.126Z,12.55
2023-01-08T23:16:38.269Z,19.42
2023-01-08T23:19:06.063Z,13.90
2023-01-08T23:21:33.243Z,18.85
2023-01-08T23:24:00.334Z,10.23
2023-01-08T23:26:28.284Z,12.20
2023-01-08T23:28:55.534Z,17.63
2023-01-08T23:31:23.761Z,10.25
2023-01-08T23:33:50.896Z,16.85
2023-01-08T23:36:21.400Z,12.38
2023-01-08T23:38:49.292Z,11.23
2023-01-08T23:41:16.476Z,10.38
2023-01-08T23:43:43.619Z,11.95
2023-01-08T23:46:10.780Z,12.52
2023-01-08T23:48:37.888Z,10.23
2023-01-08T23:51:05.155Z,14.88
2023-01-08T23:53:32.283Z,18.77
2023-01-08T23:55:59.404Z,14.43
2023-01-08T23:58:26.564Z,11.00
